sensor_id;sensor_type;location;lat;lon;timestamp;temperature;humidity
5476;DHT22;2760;50.000;9.194;2023-09-19T00:01:35;19.40;99.90
5476;DHT22;2760;50.000;9.194;2023-09-19T00:04:03;19.50;99.90
5476;DHT22;2760;50.000;9.194;2023-09-19T00:06:35;19.50;99.90
5476;DHT22;2760;50.000;9.194;2023-09-19T00:09:04;19.50;99.90
5476;DHT22;2760;50.000;9.194;2023-09-19T00:11:36;21.60;99.90
5476;DHT22;2760;50.000;9.194;2023-09-19T00:14:03;19.60;99.90
5476;DHT22;2760;50.000;9.194;2023-09-19T00:16:30;19.70;99.90
5476;DHT22;2760;50.000;9.194;2023-09-19T00:18:58;19.70;99.90
5476;DHT22;2760;50.000;9.194;2023-09-19T00:21:33;19.80;99.90
5476;DHT22;2760;50.000;9.194;2023-09-19T00:24:00;19.70;99.90
5476;DHT22;2760;50.000;9.194;2023-09-19T00:26:27;19.60;99.90
5476;DHT22;2760;50.000;9.194;2023-09-19T00:28:55;19.70;99.90
5476;DHT22;2760;50.000;9.194;2023-09-19T00:31:23;19.70;99.90
5476;DHT22;2760;50.000;9.194;2023-09-19T00:33:52;19.60;99.90
5476;DHT22;2760;50.000;9.194;2023-09-19T00:36:20;19.60;99.90
5476;DHT22;2760;50.000;9.194;2023-09-19T00:38:48;19.60;99.90
5476;DHT22;2760;50.000;9.194;2023-09-19T00:41:15;19.60;99.90
5476;DHT22;2760;50.000;9.194;2023-09-19T00:43:44;19.70;99.90
5476;DHT22;2760;50.000;9.194;2023-09-19T00:46:12;19.60;99.90
5476;DHT22;2760;50.000;9.194;2023-09-19T00:48:40;20.90;99.90
5476;DHT22;2760;50.000;9.194;2023-09-19T00:51:10;19.60;99.90
5476;DHT22;2760;50.000;9.194;2023-09-19T00:53:38;19.50;99.90
5476;DHT22;2760;50.000;9.194;2023-09-19T00:56:06;19.50;99.90
5476;DHT22;2760;50.000;9.194;2023-09-19T00:58:33;19.60;99.90
5476;DHT22;2760;50.000;9.194;2023-09-19T01:01:01;19.60;99.90
5476;DHT22;2760;50.000;9.194;2023-09-19T01:03:35;19.60;99.90
5476;DHT22;2760;50.000;9.194;2023-09-19T01:06:02;18.50;99.90
5476;DHT22;2760;50.000;9.194;2023-09-19T01:08:30;19.50;99.90
5476;DHT22;2760;50.000;9.194;2023-09-19T01:11:03;19.40;99.90
5476;DHT22;2760;50.000;9.194;2023-09-19T01:13:47;19.50;99.90
5476;DHT22;2760;50.000;9.194;2023-09-19T01:16:22;19.50;99.90
5476;DHT22;2760;50.000;9.194;2023-09-19T01:18:57;19.70;99.90
5476;DHT22;2760;50.000;9.194;2023-09-19T01:21:33;19.70;99.90
5476;DHT22;2760;50.000;9.194;2023-09-19T01:24:22;19.50;99.90
5476;DHT22;2760;50.000;9.194;2023-09-19T01:27:23;19.60;99.90
5476;DHT22;2760;50.000;9.194;2023-09-19T01:30:03;19.50;99.90
5476;DHT22;2760;50.000;9.194;2023-09-19T01:32:33;19.60;99.90
5476;DHT22;2760;50.000;9.194;2023-09-19T01:35:04;19.30;99.90
5476;DHT22;2760;50.000;9.194;2023-09-19T01:37:31;19.30;99.90
5476;DHT22;2760;50.000;9.194;2023-09-19T01:40:03;19.00;99.90
5476;DHT22;2760;50.000;9.194;2023-09-19T01:42:45;19.20;99.90
5476;DHT22;2760;50.000;9.194;2023-09-19T01:45:21;19.20;99.90
5476;DHT22;2760;50.000;9.194;2023-09-19T01:47:52;19.40;99.90
5476;DHT22;2760;50.000;9.194;2023-09-19T01:50:29;19.30;99.90
5476;DHT22;2760;50.000;9.194;2023-09-19T01:53:03;19.50;99.90
5476;DHT22;2760;50.000;9.194;2023-09-19T01:55:37;19.60;99.90
5476;DHT22;2760;50.000;9.194;2023-09-19T01:58:14;19.50;99.90
5476;DHT22;2760;50.000;9.194;2023-09-19T02:00:46;19.40;99.90
5476;DHT22;2760;50.000;9.194;2023-09-19T02:03:16;19.30;99.90
5476;DHT22;2760;50.000;9.194;2023-09-19T02:05:49;19.50;99.90
5476;DHT22;2760;50.000;9.194;2023-09-19T02:08:17;19.50;99.90
5476;DHT22;2760;50.000;9.194;2023-09-19T02:10:45;17.40;99.90
5476;DHT22;2760;50.000;9.194;2023-09-19T02:13:15;19.40;99.90
5476;DHT22;2760;50.000;9.194;2023-09-19T02:15:47;19.40;99.90
5476;DHT22;2760;50.000;9.194;2023-09-19T02:18:14;19.40;99.90
5476;DHT22;2760;50.000;9.194;2023-09-19T02:20:41;19.40;99.90
5476;DHT22;2760;50.000;9.194;2023-09-19T02:23:10;19.40;99.90
5476;DHT22;2760;50.000;9.194;2023-09-19T02:25:38;19.40;99.90
5476;DHT22;2760;50.000;9.194;2023-09-19T02:28:07;19.30;99.90
5476;DHT22;2760;50.000;9.194;2023-09-19T02:30:35;19.30;99.90
5476;DHT22;2760;50.000;9.194;2023-09-19T02:33:04;19.30;99.90
5476;DHT22;2760;50.000;9.194;2023-09-19T02:35:31;19.40;99.90
5476;DHT22;2760;50.000;9.194;2023-09-19T02:38:02;19.40;99.90
5476;DHT22;2760;50.000;9.194;2023-09-19T02:40:32;19.40;99.90
5476;DHT22;2760;50.000;9.194;2023-09-19T02:43:01;19.40;99.90
5476;DHT22;2760;50.000;9.194;2023-09-19T02:45:30;19.40;99.90
5476;DHT22;2760;50.000;9.194;2023-09-19T02:47:58;19.40;99.90
5476;DHT22;2760;50.000;9.194;2023-09-19T02:50:26;19.40;99.90
5476;DHT22;2760;50.000;9.194;2023-09-19T02:52:53;19.40;99.90
5476;DHT22;2760;50.000;9.194;2023-09-19T02:55:21;19.40;99.90
5476;DHT22;2760;50.000;9.194;2023-09-19T02:57:50;19.30;99.90
5476;DHT22;2760;50.000;9.194;2023-09-19T03:00:20;19.30;99.90
5476;DHT22;2760;50.000;9.194;2023-09-19T03:02:48;19.30;99.90
5476;DHT22;2760;50.000;9.194;2023-09-19T03:05:15;18.80;99.90
5476;DHT22;2760;50.000;9.194;2023-09-19T03:07:46;19.20;99.90
5476;DHT22;2760;50.000;9.194;2023-09-19T03:10:16;19.20;99.90
5476;DHT22;2760;50.000;9.194;2023-09-19T03:12:44;19.20;99.90
5476;DHT22;2760;50.000;9.194;2023-09-19T03:15:11;19.20;99.90
5476;DHT22;2760;50.000;9.194;2023-09-19T03:17:43;19.00;99.90
5476;DHT22;2760;50.000;9.194;2023-09-19T03:20:11;19.10;99.90
5476;DHT22;2760;50.000;9.194;2023-09-19T03:22:42;18.90;99.90
5476;DHT22;2760;50.000;9.194;2023-09-19T03:25:11;19.00;99.90
5476;DHT22;2760;50.000;9.194;2023-09-19T03:27:45;19.00;99.90
5476;DHT22;2760;50.000;9.194;2023-09-19T03:30:14;18.90;99.90
5476;DHT22;2760;50.000;9.194;2023-09-19T03:32:45;18.90;99.90
5476;DHT22;2760;50.000;9.194;2023-09-19T03:35:16;18.90;99.90
5476;DHT22;2760;50.000;9.194;2023-09-19T03:37:44;18.80;99.90
5476;DHT22;2760;50.000;9.194;2023-09-19T03:40:15;18.80;99.90
5476;DHT22;2760;50.000;9.194;2023-09-19T03:42:48;19.00;99.90
5476;DHT22;2760;50.000;9.194;2023-09-19T03:45:24;18.90;99.90
5476;DHT22;2760;50.000;9.194;2023-09-19T03:47:52;18.80;99.90
5476;DHT22;2760;50.000;9.194;2023-09-19T03:50:21;18.90;99.90
5476;DHT22;2760;50.000;9.194;2023-09-19T03:52:49;18.80;99.90
5476;DHT22;2760;50.000;9.194;2023-09-19T03:55:18;18.70;99.90
5476;DHT22;2760;50.000;9.194;2023-09-19T03:57:48;18.60;99.90
5476;DHT22;2760;50.000;9.194;2023-09-19T04:00:15;18.60;99.90
5476;DHT22;2760;50.000;9.194;2023-09-19T04:02:46;18.50;99.90
5476;DHT22;2760;50.000;9.194;2023-09-19T04:05:14;18.50;99.90
5476;DHT22;2760;50.000;9.194;2023-09-19T04:07:47;18.50;99.90
5476;DHT22;2760;50.000;9.194;2023-09-19T04:10:27;18.50;99.90
5476;DHT22;2760;50.000;9.194;2023-09-19T04:12:56;16.80;99.90
5476;DHT22;2760;50.000;9.194;2023-09-19T04:15:24;18.40;99.90
5476;DHT22;2760;50.000;9.194;2023-09-19T04:17:54;18.40;99.90
5476;DHT22;2760;50.000;9.194;2023-09-19T04:20:23;18.40;99.90
5476;DHT22;2760;50.000;9.194;2023-09-19T04:23:00;17.50;99.90
5476;DHT22;2760;50.000;9.194;2023-09-19T04:25:28;18.30;99.90
5476;DHT22;2760;50.000;9.194;2023-09-19T04:27:56;18.30;99.90
5476;DHT22;2760;50.000;9.194;2023-09-19T04:30:23;18.30;99.90
5476;DHT22;2760;50.000;9.194;2023-09-19T04:32:50;18.30;99.90
5476;DHT22;2760;50.000;9.194;2023-09-19T04:35:17;18.20;99.90
5476;DHT22;2760;50.000;9.194;2023-09-19T04:37:46;18.10;99.90
5476;DHT22;2760;50.000;9.194;2023-09-19T04:40:13;17.90;99.90
5476;DHT22;2760;50.000;9.194;2023-09-19T04:42:44;18.00;99.90
5476;DHT22;2760;50.000;9.194;2023-09-19T04:45:12;18.10;99.90
5476;DHT22;2760;50.000;9.194;2023-09-19T04:47:41;18.00;99.90
5476;DHT22;2760;50.000;9.194;2023-09-19T04:50:10;17.40;99.90
5476;DHT22;2760;50.000;9.194;2023-09-19T04:52:40;17.90;99.90
5476;DHT22;2760;50.000;9.194;2023-09-19T04:55:10;17.90;99.90
5476;DHT22;2760;50.000;9.194;2023-09-19T04:57:44;17.80;99.90
5476;DHT22;2760;50.000;9.194;2023-09-19T05:00:13;17.80;99.90
5476;DHT22;2760;50.000;9.194;2023-09-19T05:02:40;17.80;99.90
5476;DHT22;2760;50.000;9.194;2023-09-19T05:05:08;17.70;99.90
5476;DHT22;2760;50.000;9.194;2023-09-19T05:07:36;17.80;99.90
5476;DHT22;2760;50.000;9.194;2023-09-19T05:10:06;17.80;99.90
5476;DHT22;2760;50.000;9.194;2023-09-19T05:12:33;17.80;99.90
5476;DHT22;2760;50.000;9.194;2023-09-19T05:15:06;17.80;99.90
5476;DHT22;2760;50.000;9.194;2023-09-19T05:17:33;18.00;99.90
5476;DHT22;2760;50.000;9.194;2023-09-19T05:20:00;17.10;99.90
5476;DHT22;2760;50.000;9.194;2023-09-19T05:22:31;18.00;99.90
5476;DHT22;2760;50.000;9.194;2023-09-19T05:24:59;17.90;99.90
5476;DHT22;2760;50.000;9.194;2023-09-19T05:27:26;18.00;99.90
5476;DHT22;2760;50.000;9.194;2023-09-19T05:29:53;18.00;99.90
5476;DHT22;2760;50.000;9.194;2023-09-19T05:32:22;18.10;99.90
5476;DHT22;2760;50.000;9.194;2023-09-19T05:34:53;18.10;99.90
5476;DHT22;2760;50.000;9.194;2023-09-19T05:37:22;16.10;99.90
5476;DHT22;2760;50.000;9.194;2023-09-19T05:39:53;18.00;99.90
5476;DHT22;2760;50.000;9.194;2023-09-19T05:42:20;18.20;99.90
5476;DHT22;2760;50.000;9.194;2023-09-19T05:44:48;18.10;99.90
5476;DHT22;2760;50.000;9.194;2023-09-19T05:47:14;18.20;99.90
5476;DHT22;2760;50.000;9.194;2023-09-19T05:49:43;18.10;99.90
5476;DHT22;2760;50.000;9.194;2023-09-19T05:52:10;18.10;99.90
5476;DHT22;2760;50.000;9.194;2023-09-19T05:54:37;18.10;99.90
5476;DHT22;2760;50.000;9.194;2023-09-19T05:57:04;18.20;99.90
5476;DHT22;2760;50.000;9.194;2023-09-19T05:59:31;17.90;99.90
5476;DHT22;2760;50.000;9.194;2023-09-19T06:01:59;18.00;99.90
5476;DHT22;2760;50.000;9.194;2023-09-19T06:04:26;17.90;99.90
5476;DHT22;2760;50.000;9.194;2023-09-19T06:06:54;18.00;99.90
5476;DHT22;2760;50.000;9.194;2023-09-19T06:09:22;18.10;99.90
5476;DHT22;2760;50.000;9.194;2023-09-19T06:11:49;18.00;99.90
5476;DHT22;2760;50.000;9.194;2023-09-19T06:14:17;18.00;99.90
5476;DHT22;2760;50.000;9.194;2023-09-19T06:16:44;18.00;99.90
5476;DHT22;2760;50.000;9.194;2023-09-19T06:19:12;18.10;99.90
5476;DHT22;2760;50.000;9.194;2023-09-19T06:21:39;18.20;99.90
5476;DHT22;2760;50.000;9.194;2023-09-19T06:24:08;18.10;99.90
5476;DHT22;2760;50.000;9.194;2023-09-19T06:26:35;18.20;99.90
5476;DHT22;2760;50.000;9.194;2023-09-19T06:29:02;18.40;99.90
5476;DHT22;2760;50.000;9.194;2023-09-19T06:31:33;18.80;99.90
5476;DHT22;2760;50.000;9.194;2023-09-19T06:34:00;18.30;99.90
5476;DHT22;2760;50.000;9.194;2023-09-19T06:36:30;18.40;99.90
5476;DHT22;2760;50.000;9.194;2023-09-19T06:38:56;18.20;99.90
5476;DHT22;2760;50.000;9.194;2023-09-19T06:41:26;18.30;99.90
5476;DHT22;2760;50.000;9.194;2023-09-19T06:43:53;18.40;99.90
5476;DHT22;2760;50.000;9.194;2023-09-19T06:46:20;18.40;99.90
5476;DHT22;2760;50.000;9.194;2023-09-19T06:48:47;18.40;99.90
5476;DHT22;2760;50.000;9.194;2023-09-19T06:51:15;18.40;99.90
5476;DHT22;2760;50.000;9.194;2023-09-19T06:53:42;20.20;99.90
5476;DHT22;2760;50.000;9.194;2023-09-19T06:56:09;18.30;99.90
5476;DHT22;2760;50.000;9.194;2023-09-19T06:58:37;18.30;99.90
5476;DHT22;2760;50.000;9.194;2023-09-19T07:01:04;18.40;99.90
5476;DHT22;2760;50.000;9.194;2023-09-19T07:03:32;18.40;99.90
5476;DHT22;2760;50.000;9.194;2023-09-19T07:05:59;18.50;99.90
5476;DHT22;2760;50.000;9.194;2023-09-19T07:08:26;18.50;99.90
5476;DHT22;2760;50.000;9.194;2023-09-19T07:10:53;18.50;99.90
5476;DHT22;2760;50.000;9.194;2023-09-19T07:13:22;18.40;99.90
5476;DHT22;2760;50.000;9.194;2023-09-19T07:15:52;18.60;99.90
5476;DHT22;2760;50.000;9.194;2023-09-19T07:18:19;18.60;99.90
5476;DHT22;2760;50.000;9.194;2023-09-19T07:20:47;18.50;99.90
5476;DHT22;2760;50.000;9.194;2023-09-19T07:23:16;18.70;99.90
5476;DHT22;2760;50.000;9.194;2023-09-19T07:25:44;18.80;99.90
5476;DHT22;2760;50.000;9.194;2023-09-19T07:28:12;18.60;99.90
5476;DHT22;2760;50.000;9.194;2023-09-19T07:30:39;18.70;99.90
5476;DHT22;2760;50.000;9.194;2023-09-19T07:33:08;18.60;99.90
5476;DHT22;2760;50.000;9.194;2023-09-19T07:35:37;18.70;99.90
5476;DHT22;2760;50.000;9.194;2023-09-19T07:38:06;18.80;99.90
5476;DHT22;2760;50.000;9.194;2023-09-19T07:40:33;18.90;99.90
5476;DHT22;2760;50.000;9.194;2023-09-19T07:43:02;18.90;99.90
5476;DHT22;2760;50.000;9.194;2023-09-19T07:45:30;17.90;99.90
5476;DHT22;2760;50.000;9.194;2023-09-19T07:47:57;18.90;99.90
5476;DHT22;2760;50.000;9.194;2023-09-19T07:50:27;18.90;99.90
5476;DHT22;2760;50.000;9.194;2023-09-19T07:52:54;19.10;99.90
5476;DHT22;2760;50.000;9.194;2023-09-19T07:55:22;19.00;99.90
5476;DHT22;2760;50.000;9.194;2023-09-19T07:57:51;19.20;99.90
5476;DHT22;2760;50.000;9.194;2023-09-19T08:00:18;19.10;99.90
5476;DHT22;2760;50.000;9.194;2023-09-19T08:02:45;19.20;99.90
5476;DHT22;2760;50.000;9.194;2023-09-19T08:05:13;19.30;99.90
5476;DHT22;2760;50.000;9.194;2023-09-19T08:07:45;19.40;99.90
5476;DHT22;2760;50.000;9.194;2023-09-19T08:10:15;19.30;99.90
5476;DHT22;2760;50.000;9.194;2023-09-19T08:12:45;17.80;99.90
5476;DHT22;2760;50.000;9.194;2023-09-19T08:15:13;19.50;99.90
5476;DHT22;2760;50.000;9.194;2023-09-19T08:17:40;19.30;99.90
5476;DHT22;2760;50.000;9.194;2023-09-19T08:20:08;19.30;99.90
5476;DHT22;2760;50.000;9.194;2023-09-19T08:22:44;19.50;99.90
5476;DHT22;2760;50.000;9.194;2023-09-19T08:25:14;19.50;99.90
5476;DHT22;2760;50.000;9.194;2023-09-19T08:27:43;19.40;99.90
5476;DHT22;2760;50.000;9.194;2023-09-19T08:30:13;19.50;99.90
5476;DHT22;2760;50.000;9.194;2023-09-19T08:32:41;19.10;99.90
5476;DHT22;2760;50.000;9.194;2023-09-19T08:35:09;19.20;99.90
5476;DHT22;2760;50.000;9.194;2023-09-19T08:37:36;19.50;99.90
5476;DHT22;2760;50.000;9.194;2023-09-19T08:40:06;19.40;99.90
5476;DHT22;2760;50.000;9.194;2023-09-19T08:42:47;19.50;99.90
5476;DHT22;2760;50.000;9.194;2023-09-19T08:45:23;19.50;99.90
5476;DHT22;2760;50.000;9.194;2023-09-19T08:50:43;19.80;99.90
5476;DHT22;2760;50.000;9.194;2023-09-19T08:53:19;19.90;99.90
5476;DHT22;2760;50.000;9.194;2023-09-19T08:55:51;20.10;99.90
5476;DHT22;2760;50.000;9.194;2023-09-19T08:58:26;20.00;99.90
5476;DHT22;2760;50.000;9.194;2023-09-19T09:00:56;20.30;99.90
5476;DHT22;2760;50.000;9.194;2023-09-19T09:03:31;19.90;99.90
5476;DHT22;2760;50.000;9.194;2023-09-19T09:06:00;19.80;99.90
5476;DHT22;2760;50.000;9.194;2023-09-19T09:08:28;19.90;99.90
5476;DHT22;2760;50.000;9.194;2023-09-19T09:10:58;19.70;99.90
5476;DHT22;2760;50.000;9.194;2023-09-19T09:13:26;19.50;99.90
5476;DHT22;2760;50.000;9.194;2023-09-19T09:15:53;19.60;99.90
5476;DHT22;2760;50.000;9.194;2023-09-19T09:18:21;19.70;99.50
5476;DHT22;2760;50.000;9.194;2023-09-19T09:20:49;19.80;99.50
5476;DHT22;2760;50.000;9.194;2023-09-19T09:23:16;19.50;99.90
5476;DHT22;2760;50.000;9.194;2023-09-19T09:25:47;19.60;99.90
5476;DHT22;2760;50.000;9.194;2023-09-19T09:28:21;19.80;99.90
5476;DHT22;2760;50.000;9.194;2023-09-19T09:30:49;19.80;99.90
5476;DHT22;2760;50.000;9.194;2023-09-19T09:33:17;19.70;99.90
5476;DHT22;2760;50.000;9.194;2023-09-19T09:35:50;19.70;99.90
5476;DHT22;2760;50.000;9.194;2023-09-19T09:38:19;19.80;99.90
5476;DHT22;2760;50.000;9.194;2023-09-19T09:40:48;20.10;99.90
5476;DHT22;2760;50.000;9.194;2023-09-19T09:43:27;20.30;99.90
5476;DHT22;2760;50.000;9.194;2023-09-19T09:46:09;20.40;99.90
5476;DHT22;2760;50.000;9.194;2023-09-19T09:49:00;20.70;99.90
5476;DHT22;2760;50.000;9.194;2023-09-19T09:51:45;20.90;99.90
5476;DHT22;2760;50.000;9.194;2023-09-19T09:54:24;21.20;99.90
5476;DHT22;2760;50.000;9.194;2023-09-19T09:56:55;19.40;98.50
5476;DHT22;2760;50.000;9.194;2023-09-19T09:59:45;21.30;98.60
5476;DHT22;2760;50.000;9.194;2023-09-19T10:02:14;21.00;99.30
5476;DHT22;2760;50.000;9.194;2023-09-19T10:04:48;21.10;99.30
5476;DHT22;2760;50.000;9.194;2023-09-19T10:07:29;21.40;98.20
5476;DHT22;2760;50.000;9.194;2023-09-19T10:10:02;21.30;98.00
5476;DHT22;2760;50.000;9.194;2023-09-19T10:12:54;21.20;98.10
5476;DHT22;2760;50.000;9.194;2023-09-19T10:15:26;21.20;98.60
5476;DHT22;2760;50.000;9.194;2023-09-19T10:17:56;21.40;98.40
5476;DHT22;2760;50.000;9.194;2023-09-19T10:20:24;21.50;97.50
5476;DHT22;2760;50.000;9.194;2023-09-19T10:23:06;21.90;97.50
5476;DHT22;2760;50.000;9.194;2023-09-19T10:25:39;22.10;96.80
5476;DHT22;2760;50.000;9.194;2023-09-19T10:28:07;22.40;96.90
5476;DHT22;2760;50.000;9.194;2023-09-19T10:30:40;22.40;97.00
5476;DHT22;2760;50.000;9.194;2023-09-19T10:33:10;22.60;95.50
5476;DHT22;2760;50.000;9.194;2023-09-19T10:35:38;23.00;94.60
5476;DHT22;2760;50.000;9.194;2023-09-19T10:38:07;23.20;94.10
5476;DHT22;2760;50.000;9.194;2023-09-19T10:40:38;23.40;94.30
5476;DHT22;2760;50.000;9.194;2023-09-19T10:43:12;23.10;94.70
5476;DHT22;2760;50.000;9.194;2023-09-19T10:45:44;22.90;94.60
5476;DHT22;2760;50.000;9.194;2023-09-19T10:48:12;22.90;94.70
5476;DHT22;2760;50.000;9.194;2023-09-19T10:50:45;23.10;94.30
5476;DHT22;2760;50.000;9.194;2023-09-19T10:53:15;23.60;94.40
5476;DHT22;2760;50.000;9.194;2023-09-19T10:55:49;23.00;95.10
5476;DHT22;2760;50.000;9.194;2023-09-19T10:58:28;23.30;95.30
5476;DHT22;2760;50.000;9.194;2023-09-19T11:00:57;23.60;94.50
5476;DHT22;2760;50.000;9.194;2023-09-19T11:03:31;23.70;93.40
5476;DHT22;2760;50.000;9.194;2023-09-19T11:06:04;23.50;94.40
5476;DHT22;2760;50.000;9.194;2023-09-19T11:08:54;23.70;93.40
5476;DHT22;2760;50.000;9.194;2023-09-19T11:11:40;23.50;94.10
5476;DHT22;2760;50.000;9.194;2023-09-19T11:14:15;23.60;94.20
5476;DHT22;2760;50.000;9.194;2023-09-19T11:20:21;23.90;93.10
5476;DHT22;2760;50.000;9.194;2023-09-19T11:23:19;23.70;91.40
5476;DHT22;2760;50.000;9.194;2023-09-19T11:25:49;23.50;90.70
5476;DHT22;2760;50.000;9.194;2023-09-19T11:28:34;23.70;90.80
5476;DHT22;2760;50.000;9.194;2023-09-19T11:31:41;23.80;90.40
5476;DHT22;2760;50.000;9.194;2023-09-19T11:34:37;23.90;90.70
5476;DHT22;2760;50.000;9.194;2023-09-19T11:40:35;23.10;91.50
5476;DHT22;2760;50.000;9.194;2023-09-19T11:43:28;23.20;91.50
5476;DHT22;2760;50.000;9.194;2023-09-19T11:46:06;21.60;91.50
5476;DHT22;2760;50.000;9.194;2023-09-19T11:48:35;23.70;90.40
5476;DHT22;2760;50.000;9.194;2023-09-19T11:51:20;23.70;90.50
5476;DHT22;2760;50.000;9.194;2023-09-19T11:53:54;24.20;90.50
5476;DHT22;2760;50.000;9.194;2023-09-19T11:56:22;24.60;89.40
5476;DHT22;2760;50.000;9.194;2023-09-19T11:58:52;24.60;89.00
5476;DHT22;2760;50.000;9.194;2023-09-19T12:01:25;25.10;88.80
5476;DHT22;2760;50.000;9.194;2023-09-19T12:03:55;25.30;88.80
5476;DHT22;2760;50.000;9.194;2023-09-19T12:06:25;25.00;90.00
5476;DHT22;2760;50.000;9.194;2023-09-19T12:08:54;23.30;87.70
5476;DHT22;2760;50.000;9.194;2023-09-19T12:11:27;24.80;89.10
5476;DHT22;2760;50.000;9.194;2023-09-19T12:13:55;25.70;87.50
5476;DHT22;2760;50.000;9.194;2023-09-19T12:16:26;25.90;86.50
5476;DHT22;2760;50.000;9.194;2023-09-19T12:18:57;26.00;88.00
5476;DHT22;2760;50.000;9.194;2023-09-19T12:21:25;24.50;84.70
5476;DHT22;2760;50.000;9.194;2023-09-19T12:24:12;26.20;87.50
5476;DHT22;2760;50.000;9.194;2023-09-19T12:26:43;26.00;87.20
5476;DHT22;2760;50.000;9.194;2023-09-19T12:29:15;26.00;89.20
5476;DHT22;2760;50.000;9.194;2023-09-19T12:31:49;25.70;88.40
5476;DHT22;2760;50.000;9.194;2023-09-19T12:34:20;26.00;87.10
5476;DHT22;2760;50.000;9.194;2023-09-19T12:36:47;25.80;88.30
5476;DHT22;2760;50.000;9.194;2023-09-19T12:39:24;25.90;87.40
5476;DHT22;2760;50.000;9.194;2023-09-19T12:41:52;26.30;88.10
5476;DHT22;2760;50.000;9.194;2023-09-19T12:44:20;26.40;86.70
5476;DHT22;2760;50.000;9.194;2023-09-19T12:46:51;26.00;86.00
5476;DHT22;2760;50.000;9.194;2023-09-19T12:49:20;26.30;85.90
5476;DHT22;2760;50.000;9.194;2023-09-19T12:51:49;26.40;86.60
5476;DHT22;2760;50.000;9.194;2023-09-19T12:54:18;26.20;87.00
5476;DHT22;2760;50.000;9.194;2023-09-19T12:56:47;28.30;87.80
5476;DHT22;2760;50.000;9.194;2023-09-19T12:59:15;26.70;84.60
5476;DHT22;2760;50.000;9.194;2023-09-19T13:01:43;26.70;85.90
5476;DHT22;2760;50.000;9.194;2023-09-19T13:04:16;26.50;85.30
5476;DHT22;2760;50.000;9.194;2023-09-19T13:06:45;26.50;86.60
5476;DHT22;2760;50.000;9.194;2023-09-19T13:09:14;26.70;85.20
5476;DHT22;2760;50.000;9.194;2023-09-19T13:11:42;27.00;83.50
5476;DHT22;2760;50.000;9.194;2023-09-19T13:14:17;27.00;82.60
5476;DHT22;2760;50.000;9.194;2023-09-19T13:16:55;26.60;84.00
5476;DHT22;2760;50.000;9.194;2023-09-19T13:19:39;26.50;84.80
5476;DHT22;2760;50.000;9.194;2023-09-19T13:22:41;26.50;83.70
5476;DHT22;2760;50.000;9.194;2023-09-19T13:25:13;26.60;84.20
5476;DHT22;2760;50.000;9.194;2023-09-19T13:27:42;26.70;82.70
5476;DHT22;2760;50.000;9.194;2023-09-19T13:30:12;26.40;83.30
5476;DHT22;2760;50.000;9.194;2023-09-19T13:32:42;26.70;83.10
5476;DHT22;2760;50.000;9.194;2023-09-19T13:35:10;26.80;84.40
5476;DHT22;2760;50.000;9.194;2023-09-19T13:37:38;26.90;83.30
5476;DHT22;2760;50.000;9.194;2023-09-19T13:40:07;26.50;84.20
5476;DHT22;2760;50.000;9.194;2023-09-19T13:42:35;26.10;84.70
5476;DHT22;2760;50.000;9.194;2023-09-19T13:45:11;26.40;83.90
5476;DHT22;2760;50.000;9.194;2023-09-19T13:47:41;26.40;83.60
5476;DHT22;2760;50.000;9.194;2023-09-19T13:50:09;26.20;83.50
5476;DHT22;2760;50.000;9.194;2023-09-19T13:52:36;25.60;85.50
5476;DHT22;2760;50.000;9.194;2023-09-19T13:55:04;25.50;85.90
5476;DHT22;2760;50.000;9.194;2023-09-19T13:57:32;25.50;86.00
5476;DHT22;2760;50.000;9.194;2023-09-19T13:59:59;25.30;85.70
5476;DHT22;2760;50.000;9.194;2023-09-19T14:02:28;25.40;86.00
5476;DHT22;2760;50.000;9.194;2023-09-19T14:04:55;25.00;87.80
5476;DHT22;2760;50.000;9.194;2023-09-19T14:07:23;25.00;88.20
5476;DHT22;2760;50.000;9.194;2023-09-19T14:09:51;25.60;87.10
5476;DHT22;2760;50.000;9.194;2023-09-19T14:12:18;25.50;88.40
5476;DHT22;2760;50.000;9.194;2023-09-19T14:14:45;25.80;87.50
5476;DHT22;2760;50.000;9.194;2023-09-19T14:17:12;25.80;86.60
5476;DHT22;2760;50.000;9.194;2023-09-19T14:19:42;25.50;86.40
5476;DHT22;2760;50.000;9.194;2023-09-19T14:22:10;25.50;87.00
5476;DHT22;2760;50.000;9.194;2023-09-19T14:24:37;25.30;87.30
5476;DHT22;2760;50.000;9.194;2023-09-19T14:27:04;25.30;87.60
5476;DHT22;2760;50.000;9.194;2023-09-19T14:29:34;25.30;88.00
5476;DHT22;2760;50.000;9.194;2023-09-19T14:32:02;25.30;87.70
5476;DHT22;2760;50.000;9.194;2023-09-19T14:34:29;25.20;87.80
5476;DHT22;2760;50.000;9.194;2023-09-19T14:36:57;25.30;87.40
5476;DHT22;2760;50.000;9.194;2023-09-19T14:39:24;25.40;85.80
5476;DHT22;2760;50.000;9.194;2023-09-19T14:41:52;25.30;85.80
5476;DHT22;2760;50.000;9.194;2023-09-19T14:44:19;25.30;86.00
5476;DHT22;2760;50.000;9.194;2023-09-19T14:46:47;23.90;84.70
5476;DHT22;2760;50.000;9.194;2023-09-19T14:49:14;24.90;87.60
5476;DHT22;2760;50.000;9.194;2023-09-19T14:51:42;24.60;88.00
5476;DHT22;2760;50.000;9.194;2023-09-19T14:54:11;24.50;88.60
5476;DHT22;2760;50.000;9.194;2023-09-19T14:56:38;24.60;88.70
5476;DHT22;2760;50.000;9.194;2023-09-19T14:59:05;24.20;88.70
5476;DHT22;2760;50.000;9.194;2023-09-19T15:01:33;23.80;90.30
5476;DHT22;2760;50.000;9.194;2023-09-19T15:04:00;24.00;90.20
5476;DHT22;2760;50.000;9.194;2023-09-19T15:06:27;24.10;90.10
5476;DHT22;2760;50.000;9.194;2023-09-19T15:08:55;23.90;90.30
5476;DHT22;2760;50.000;9.194;2023-09-19T15:11:24;23.90;90.20
5476;DHT22;2760;50.000;9.194;2023-09-19T15:13:52;23.70;90.30
5476;DHT22;2760;50.000;9.194;2023-09-19T15:16:19;23.70;90.60
5476;DHT22;2760;50.000;9.194;2023-09-19T15:18:46;23.60;90.90
5476;DHT22;2760;50.000;9.194;2023-09-19T15:21:14;23.60;91.00
5476;DHT22;2760;50.000;9.194;2023-09-19T15:23:42;23.60;91.10
5476;DHT22;2760;50.000;9.194;2023-09-19T15:26:12;23.50;91.20
5476;DHT22;2760;50.000;9.194;2023-09-19T15:28:41;23.40;91.30
5476;DHT22;2760;50.000;9.194;2023-09-19T15:31:09;23.60;91.20
5476;DHT22;2760;50.000;9.194;2023-09-19T15:33:36;23.60;91.20
5476;DHT22;2760;50.000;9.194;2023-09-19T15:36:04;23.70;91.30
5476;DHT22;2760;50.000;9.194;2023-09-19T15:38:32;23.60;91.30
5476;DHT22;2760;50.000;9.194;2023-09-19T15:41:17;23.50;91.50
5476;DHT22;2760;50.000;9.194;2023-09-19T15:43:45;23.50;91.50
5476;DHT22;2760;50.000;9.194;2023-09-19T15:46:13;23.60;91.40
5476;DHT22;2760;50.000;9.194;2023-09-19T15:48:40;23.60;91.70
5476;DHT22;2760;50.000;9.194;2023-09-19T15:51:08;23.50;91.60
5476;DHT22;2760;50.000;9.194;2023-09-19T15:53:45;23.70;91.60
5476;DHT22;2760;50.000;9.194;2023-09-19T15:56:13;23.50;92.00
5476;DHT22;2760;50.000;9.194;2023-09-19T15:58:40;23.40;91.90
5476;DHT22;2760;50.000;9.194;2023-09-19T16:01:09;23.60;92.00
5476;DHT22;2760;50.000;9.194;2023-09-19T16:03:36;21.70;91.10
5476;DHT22;2760;50.000;9.194;2023-09-19T16:06:08;23.30;92.20
5476;DHT22;2760;50.000;9.194;2023-09-19T16:08:38;23.30;92.00
5476;DHT22;2760;50.000;9.194;2023-09-19T16:11:05;23.30;92.30
5476;DHT22;2760;50.000;9.194;2023-09-19T16:13:32;23.20;92.30
5476;DHT22;2760;50.000;9.194;2023-09-19T16:15:59;23.30;92.10
5476;DHT22;2760;50.000;9.194;2023-09-19T16:18:28;23.30;92.20
5476;DHT22;2760;50.000;9.194;2023-09-19T16:21:01;23.40;92.30
5476;DHT22;2760;50.000;9.194;2023-09-19T16:23:29;23.30;92.50
5476;DHT22;2760;50.000;9.194;2023-09-19T16:26:02;23.10;92.60
5476;DHT22;2760;50.000;9.194;2023-09-19T16:28:30;23.10;92.70
5476;DHT22;2760;50.000;9.194;2023-09-19T16:30:58;23.00;93.10
5476;DHT22;2760;50.000;9.194;2023-09-19T16:33:27;22.90;92.90